Vaughnsville, Ohio
Current Conditions -  °F | °C
As of 9:53 AM on Wednesday 22 Oct 2014 (Local Time) from KAOH Reporting Station
Overcast Overcast  
Wind Chill: 42°   Ceiling: 2600
Heat Index: 46°   Visibility: 10mi
Dew Point: 39°   Wind: 8mph
Humidity: 76%   Direction: 10°N
Pressure: 30.3"   Gusts: NA
Location:  40.88°N, 84.15°W
Report Text: KAOH 221353Z AUTO 01007KT 10SM OVC026 08/04 A3030 RMK AO2 SLP264 T00780039
Loading
Personal Weather Stations






























Interactive Weather Map
Tropical Storm Tracking
New forecast layout! Learn more

10-Day Weather Forecast

Advertisements
Track Severe Weather on mobile